createdAt,value
2022-11-14T00:00:03.133Z,29.43
2022-11-14T00:02:49.909Z,30.93
2022-11-14T00:05:40.664Z,28.50
2022-11-14T00:08:27.508Z,29.00
2022-11-14T00:11:15.792Z,28.33
2022-11-14T00:14:02.369Z,27.50
2022-11-14T00:16:49.225Z,27.90
2022-11-14T00:19:35.729Z,28.97
2022-11-14T00:22:22.520Z,29.30
2022-11-14T00:25:10.835Z,27.47
2022-11-14T00:27:59.720Z,27.03
2022-11-14T00:30:48.327Z,27.17
2022-11-14T00:33:34.968Z,28.10
2022-11-14T00:36:21.636Z,26.00
2022-11-14T00:39:08.193Z,26.37
2022-11-14T00:41:55.082Z,27.23
2022-11-14T00:44:43.237Z,25.97
2022-11-14T00:47:29.637Z,27.97
2022-11-14T00:50:16.777Z,26.20
2022-11-14T00:53:03.567Z,26.63
2022-11-14T00:55:50.234Z,26.97
2022-11-14T00:58:36.825Z,25.67
2022-11-14T01:01:25.152Z,28.23
2022-11-14T01:04:11.806Z,27.40
2022-11-14T01:06:58.185Z,27.00
2022-11-14T01:09:44.934Z,27.80
2022-11-14T01:12:31.582Z,26.30
2022-11-14T01:15:17.969Z,27.67
2022-11-14T01:18:05.993Z,27.33
2022-11-14T01:20:52.620Z,27.20
2022-11-14T01:23:38.940Z,27.20
2022-11-14T01:26:25.658Z,26.80
2022-11-14T01:29:12.751Z,28.70
2022-11-14T01:31:59.056Z,27.57
2022-11-14T01:34:47.665Z,28.37
2022-11-14T01:37:34.191Z,26.90
2022-11-14T01:40:21.074Z,26.50
2022-11-14T01:43:24.544Z,28.43
2022-11-14T01:46:14.469Z,27.47
2022-11-14T01:49:03.277Z,25.37
2022-11-14T01:51:54.673Z,29.50
2022-11-14T01:54:44.757Z,29.20
2022-11-14T01:57:36.395Z,29.40
2022-11-14T02:00:22.688Z,28.47
2022-11-14T02:03:09.295Z,28.37
2022-11-14T02:05:56.669Z,27.93
2022-11-14T02:08:44.862Z,28.23
2022-11-14T02:11:33.125Z,28.13
2022-11-14T02:14:19.585Z,28.03
2022-11-14T02:20:20.203Z,28.07
2022-11-14T02:23:06.477Z,28.33
2022-11-14T02:25:53.025Z,28.30
2022-11-14T02:28:40.128Z,30.53
2022-11-14T02:31:26.972Z,31.03
2022-11-14T02:34:16.830Z,28.90
2022-11-14T02:37:04.693Z,29.50
2022-11-14T02:39:51.251Z,28.57
2022-11-14T02:42:38.038Z,29.10
2022-11-14T02:45:24.414Z,30.40
2022-11-14T02:48:10.837Z,28.63
2022-11-14T02:50:57.413Z,28.30
2022-11-14T02:53:45.325Z,30.27
2022-11-14T02:56:31.860Z,29.77
2022-11-14T02:59:18.221Z,29.77
2022-11-14T03:02:05.511Z,29.77
2022-11-14T03:04:52.008Z,29.47
2022-11-14T03:07:38.814Z,30.93
2022-11-14T03:10:27.682Z,27.60
2022-11-14T03:13:13.962Z,30.83
2022-11-14T03:16:07.092Z,29.90
2022-11-14T03:18:53.843Z,30.53
2022-11-14T03:21:40.453Z,29.03
2022-11-14T03:24:26.956Z,28.40
2022-11-14T03:27:15.106Z,31.53
2022-11-14T03:30:01.992Z,29.53
2022-11-14T03:32:48.509Z,32.13
2022-11-14T03:35:35.242Z,31.70
2022-11-14T03:38:23.140Z,32.97
2022-11-14T03:41:10.013Z,32.73
2022-11-14T03:43:57.760Z,33.77
2022-11-14T03:46:44.522Z,35.00
2022-11-14T03:49:31.033Z,32.53
2022-11-14T03:52:17.428Z,33.40
2022-11-14T03:55:04.839Z,33.27
2022-11-14T03:57:51.238Z,30.80
2022-11-14T04:00:39.943Z,32.50
2022-11-14T04:03:26.962Z,31.97
2022-11-14T04:06:13.858Z,30.63
2022-11-14T04:09:01.341Z,29.00
2022-11-14T04:11:47.676Z,32.17
2022-11-14T04:14:34.478Z,30.27
2022-11-14T04:17:22.456Z,29.17
2022-11-14T04:20:09.635Z,30.13
2022-11-14T04:22:56.165Z,29.43
2022-11-14T04:25:44.384Z,28.90
2022-11-14T04:28:31.345Z,29.60
2022-11-14T04:31:18.148Z,28.23
2022-11-14T04:34:06.167Z,30.33
2022-11-14T04:36:53.318Z,30.40
2022-11-14T04:39:39.782Z,31.20
2022-11-14T04:42:26.516Z,30.07
2022-11-14T04:45:13.070Z,32.07
2022-11-14T04:47:59.610Z,29.50
2022-11-14T04:50:47.971Z,30.37
2022-11-14T04:53:34.382Z,31.97
2022-11-14T04:56:23.338Z,30.97
2022-11-14T04:59:10.153Z,29.90
2022-11-14T05:01:59.300Z,31.50
2022-11-14T05:04:47.290Z,30.07
2022-11-14T05:07:35.343Z,33.37
2022-11-14T05:10:22.232Z,29.60
2022-11-14T05:13:08.650Z,31.03
2022-11-14T05:15:55.111Z,32.40
2022-11-14T05:18:46.904Z,31.73
2022-11-14T05:21:35.293Z,31.93
2022-11-14T05:24:23.098Z,29.83
2022-11-14T05:27:09.475Z,31.17
2022-11-14T05:29:56.473Z,31.77
2022-11-14T05:32:42.919Z,32.27
2022-11-14T05:35:29.587Z,32.30
2022-11-14T05:38:16.284Z,33.30
2022-11-14T05:41:08.348Z,33.77
2022-11-14T05:43:54.995Z,33.03
2022-11-14T05:46:41.531Z,30.77
2022-11-14T05:49:28.072Z,31.53
2022-11-14T05:52:14.832Z,31.70
2022-11-14T05:55:01.070Z,32.23
2022-11-14T05:57:49.055Z,32.37
2022-11-14T06:00:41.912Z,31.80
2022-11-14T06:03:34.826Z,31.30
2022-11-14T06:06:22.280Z,33.20
2022-11-14T06:09:08.921Z,31.93
2022-11-14T06:11:55.268Z,33.27
2022-11-14T06:14:43.014Z,32.67
2022-11-14T06:17:29.516Z,32.73
2022-11-14T06:20:16.189Z,32.77
2022-11-14T06:23:02.482Z,30.83
2022-11-14T06:25:49.312Z,32.97
2022-11-14T06:28:36.040Z,33.60
2022-11-14T06:31:24.348Z,32.27
2022-11-14T06:34:12.497Z,30.73
2022-11-14T06:36:59.031Z,32.67
2022-11-14T06:39:45.301Z,32.30
2022-11-14T06:42:32.103Z,31.20
2022-11-14T06:45:18.759Z,30.10
2022-11-14T06:48:07.002Z,32.67
2022-11-14T06:50:54.375Z,33.47
2022-11-14T06:53:42.158Z,31.10
2022-11-14T06:56:28.748Z,32.90
2022-11-14T06:59:15.540Z,32.07
2022-11-14T07:02:02.051Z,32.03
2022-11-14T07:04:49.815Z,32.30
2022-11-14T07:07:38.644Z,33.93
2022-11-14T07:10:25.035Z,34.60
2022-11-14T07:13:12.328Z,31.70
2022-11-14T07:15:58.625Z,33.70
2022-11-14T07:18:45.220Z,33.73
2022-11-14T07:21:34.930Z,32.97
2022-11-14T07:24:21.493Z,32.60
2022-11-14T07:27:09.345Z,30.97
2022-11-14T07:29:56.115Z,33.67
2022-11-14T07:32:42.662Z,31.30
2022-11-14T07:35:29.392Z,30.73
2022-11-14T07:38:17.274Z,31.43
2022-11-14T07:41:05.611Z,31.37
2022-11-14T07:43:52.089Z,33.47
2022-11-14T07:46:38.477Z,32.33
2022-11-14T07:49:25.134Z,34.17
2022-11-14T07:52:14.639Z,34.67
2022-11-14T07:55:02.624Z,34.00
2022-11-14T07:57:49.800Z,32.03
2022-11-14T08:00:36.614Z,31.63
2022-11-14T08:03:23.264Z,32.67
2022-11-14T08:06:11.680Z,31.40
2022-11-14T08:08:58.359Z,31.77
2022-11-14T08:11:49.227Z,31.30
2022-11-14T08:14:35.904Z,32.10
2022-11-14T08:17:25.433Z,32.23
2022-11-14T08:20:12.597Z,31.60
2022-11-14T08:23:03.631Z,31.53
2022-11-14T08:25:50.481Z,30.87
2022-11-14T08:28:40.335Z,30.90
2022-11-14T08:31:27.209Z,30.47
2022-11-14T08:34:13.639Z,29.10
2022-11-14T08:36:59.963Z,29.20
2022-11-14T08:39:46.557Z,29.67
2022-11-14T08:42:33.303Z,28.50
2022-11-14T08:45:21.163Z,29.17
2022-11-14T08:48:11.470Z,27.67
2022-11-14T08:50:57.985Z,27.47
2022-11-14T08:53:44.978Z,27.83
2022-11-14T08:56:31.410Z,27.67
2022-11-14T08:59:17.863Z,27.90
2022-11-14T09:02:05.963Z,29.43
2022-11-14T09:04:52.558Z,29.07
2022-11-14T09:07:39.339Z,28.80
2022-11-14T09:10:26.719Z,28.80
2022-11-14T09:13:13.045Z,27.67
2022-11-14T09:15:59.380Z,26.83
2022-11-14T09:18:47.242Z,25.80
2022-11-14T09:21:33.680Z,25.03
2022-11-14T09:24:20.320Z,26.20
2022-11-14T09:27:07.056Z,25.73
2022-11-14T09:29:54.083Z,26.07
2022-11-14T09:32:40.466Z,24.13
2022-11-14T09:35:28.426Z,22.57
2022-11-14T09:38:14.794Z,23.30
2022-11-14T09:41:07.568Z,22.77
2022-11-14T09:44:14.197Z,22.90
2022-11-14T09:47:06.812Z,23.80
2022-11-14T09:49:55.867Z,22.30
2022-11-14T09:52:47.523Z,24.23
2022-11-14T09:55:37.125Z,22.90
2022-11-14T09:58:24.698Z,22.67
2022-11-14T10:01:19.296Z,23.87
2022-11-14T10:04:16.235Z,22.00
2022-11-14T10:07:11.487Z,23.03
2022-11-14T10:10:06.424Z,22.30
2022-11-14T10:13:02.262Z,20.77
2022-11-14T10:15:54.020Z,22.30
2022-11-14T10:18:55.817Z,22.90
2022-11-14T10:21:58.125Z,25.13
2022-11-14T10:25:20.241Z,24.13
2022-11-14T10:28:22.613Z,22.50
2022-11-14T10:31:21.559Z,22.10
2022-11-14T10:34:13.889Z,20.70
2022-11-14T10:37:07.571Z,22.97
2022-11-14T10:39:56.559Z,23.30
2022-11-14T10:42:45.836Z,23.90
2022-11-14T10:45:39.043Z,22.07
2022-11-14T10:48:32.155Z,23.10
2022-11-14T10:51:22.301Z,22.60
2022-11-14T10:54:14.988Z,24.77
2022-11-14T10:57:01.597Z,20.87
2022-11-14T10:59:49.575Z,23.80
2022-11-14T11:02:49.735Z,23.47
2022-11-14T11:05:48.401Z,22.93
2022-11-14T11:08:56.430Z,23.20
2022-11-14T11:11:43.300Z,22.57
2022-11-14T11:14:30.645Z,25.00
2022-11-14T11:17:34.931Z,23.50
2022-11-14T11:20:33.586Z,24.37
2022-11-14T11:23:23.451Z,23.07
2022-11-14T11:26:21.911Z,22.50
2022-11-14T11:29:17.646Z,21.83
2022-11-14T11:32:11.054Z,21.10
2022-11-14T11:35:04.352Z,22.83
2022-11-14T11:37:55.700Z,23.30
2022-11-14T11:40:45.413Z,23.77
2022-11-14T11:43:53.902Z,23.67
2022-11-14T11:46:48.801Z,21.97
2022-11-14T11:49:48.614Z,20.67
2022-11-14T11:52:42.602Z,22.97
2022-11-14T11:55:33.376Z,20.60
2022-11-14T11:58:25.354Z,21.87
2022-11-14T12:01:14.975Z,23.13
2022-11-14T12:04:04.151Z,19.33
2022-11-14T12:06:57.312Z,21.70
2022-11-14T12:10:09.766Z,21.47
2022-11-14T12:13:39.869Z,20.33
2022-11-14T12:16:59.745Z,22.33
2022-11-14T12:20:07.434Z,20.73
2022-11-14T12:23:12.116Z,21.70
2022-11-14T12:26:19.881Z,22.33
2022-11-14T12:29:25.518Z,22.13
2022-11-14T12:32:16.979Z,21.47
2022-11-14T12:35:09.907Z,21.23
2022-11-14T12:37:58.576Z,23.90
2022-11-14T12:40:52.053Z,21.90
2022-11-14T12:43:44.166Z,22.30
2022-11-14T12:47:15.581Z,20.60
2022-11-14T12:50:42.338Z,22.17
2022-11-14T12:53:44.400Z,22.47
2022-11-14T12:57:00.907Z,21.97
2022-11-14T13:00:00.999Z,21.93
2022-11-14T13:03:22.315Z,21.93
2022-11-14T13:06:15.097Z,21.67
2022-11-14T13:09:37.232Z,22.80
2022-11-14T13:12:47.199Z,24.07
2022-11-14T13:16:09.268Z,24.10
2022-11-14T13:19:17.898Z,25.50
2022-11-14T13:22:38.259Z,26.73
2022-11-14T13:25:25.614Z,24.53
2022-11-14T13:28:48.129Z,26.33
2022-11-14T13:31:48.361Z,25.67
2022-11-14T13:34:40.466Z,25.47
2022-11-14T13:37:40.402Z,26.70
2022-11-14T13:40:29.986Z,25.73
2022-11-14T13:43:21.150Z,24.13
2022-11-14T13:46:13.697Z,25.33
2022-11-14T13:49:21.880Z,24.07
2022-11-14T13:52:08.963Z,25.83
2022-11-14T13:54:55.619Z,26.90
2022-11-14T13:57:48.689Z,28.30
2022-11-14T14:00:54.702Z,26.10
2022-11-14T14:03:59.893Z,28.40
2022-11-14T14:06:59.147Z,28.60
2022-11-14T14:09:52.099Z,30.90
2022-11-14T14:12:48.044Z,29.87
2022-11-14T14:15:39.076Z,31.73
2022-11-14T14:18:33.972Z,31.83
2022-11-14T14:21:30.666Z,32.13
2022-11-14T14:24:34.542Z,32.20
2022-11-14T14:27:26.185Z,33.93
2022-11-14T14:30:14.348Z,34.30
2022-11-14T14:33:11.206Z,35.83
2022-11-14T14:35:58.168Z,33.87
2022-11-14T14:38:45.059Z,34.63
2022-11-14T14:41:36.219Z,33.90
2022-11-14T14:44:28.494Z,34.60
2022-11-14T14:47:32.467Z,36.17
2022-11-14T14:50:20.851Z,36.17
2022-11-14T14:53:07.707Z,38.30
2022-11-14T14:55:56.499Z,38.43
2022-11-14T14:58:44.733Z,38.80
2022-11-14T15:01:34.174Z,40.03
2022-11-14T15:04:21.917Z,37.50
2022-11-14T15:07:20.101Z,39.63
2022-11-14T15:10:07.981Z,38.13
2022-11-14T15:12:54.652Z,38.70
2022-11-14T15:15:43.261Z,41.43
2022-11-14T15:18:32.141Z,40.87
2022-11-14T15:21:27.331Z,39.90
2022-11-14T15:24:17.090Z,40.97
2022-11-14T15:27:05.950Z,38.03
2022-11-14T15:29:54.536Z,39.60
2022-11-14T15:32:49.548Z,40.60
2022-11-14T15:35:36.798Z,41.80
2022-11-14T15:41:31.905Z,41.80
2022-11-14T15:44:31.432Z,42.57
2022-11-14T15:47:25.745Z,44.10
2022-11-14T15:50:29.466Z,41.90
2022-11-14T15:53:23.048Z,44.50
2022-11-14T15:56:12.332Z,42.77
2022-11-14T15:58:58.879Z,44.57
2022-11-14T16:01:47.461Z,43.37
2022-11-14T16:04:35.381Z,43.90
2022-11-14T16:07:23.601Z,43.40
2022-11-14T16:10:15.672Z,43.37
2022-11-14T16:13:02.871Z,41.80
2022-11-14T16:15:49.415Z,44.70
2022-11-14T16:18:36.080Z,43.23
2022-11-14T16:21:22.450Z,44.77
2022-11-14T16:24:15.839Z,45.00
2022-11-14T16:27:02.163Z,44.33
2022-11-14T16:29:49.411Z,43.10
2022-11-14T16:32:35.796Z,41.70
2022-11-14T16:35:24.029Z,45.37
2022-11-14T16:38:13.783Z,45.47
2022-11-14T16:41:01.801Z,44.17
2022-11-14T16:43:48.742Z,44.93
2022-11-14T16:46:35.502Z,42.67
2022-11-14T16:49:22.030Z,42.90
2022-11-14T16:52:10.907Z,44.60
2022-11-14T16:54:57.405Z,45.30
2022-11-14T16:57:45.127Z,43.50
2022-11-14T17:00:32.431Z,45.93
2022-11-14T17:03:19.247Z,43.33
2022-11-14T17:06:10.556Z,44.60
2022-11-14T17:08:57.408Z,43.70
2022-11-14T17:11:45.550Z,42.90
2022-11-14T17:14:33.859Z,43.33
2022-11-14T17:17:21.538Z,42.80
2022-11-14T17:20:10.903Z,42.43
2022-11-14T17:22:58.201Z,43.03
2022-11-14T17:25:45.406Z,42.80
2022-11-14T17:28:32.750Z,42.33
2022-11-14T17:31:21.332Z,41.50
2022-11-14T17:34:10.592Z,43.57
2022-11-14T17:36:58.866Z,42.33
2022-11-14T17:39:46.753Z,40.50
2022-11-14T17:42:33.499Z,43.00
2022-11-14T17:45:21.896Z,43.63
2022-11-14T17:48:17.360Z,41.50
2022-11-14T17:51:15.442Z,42.40
2022-11-14T17:54:07.004Z,43.50
2022-11-14T17:57:00.180Z,41.93
2022-11-14T17:59:52.486Z,40.90
2022-11-14T18:02:56.890Z,40.83
2022-11-14T18:05:53.468Z,42.90
2022-11-14T18:08:46.350Z,42.27
2022-11-14T18:11:39.130Z,42.20
2022-11-14T18:14:35.127Z,43.30
2022-11-14T18:17:26.176Z,42.73
2022-11-14T18:20:19.809Z,41.93
2022-11-14T18:23:14.711Z,42.87
2022-11-14T18:26:29.552Z,40.77
2022-11-14T18:29:18.783Z,40.27
2022-11-14T18:32:27.639Z,43.13
2022-11-14T18:35:32.006Z,44.00
2022-11-14T18:38:42.424Z,45.80
2022-11-14T18:41:42.862Z,43.23
2022-11-14T18:44:34.116Z,44.20
2022-11-14T18:47:33.528Z,42.80
2022-11-14T18:50:31.705Z,42.53
2022-11-14T18:53:31.119Z,41.17
2022-11-14T18:56:29.647Z,44.23
2022-11-14T18:59:29.175Z,44.67
2022-11-14T19:02:26.304Z,46.23
2022-11-14T19:05:26.388Z,45.00
2022-11-14T19:08:20.420Z,42.10
2022-11-14T19:11:34.092Z,42.93
2022-11-14T19:14:32.923Z,44.00
2022-11-14T19:17:24.453Z,43.00
2022-11-14T19:20:29.588Z,44.70
2022-11-14T19:23:28.060Z,45.87
2022-11-14T19:26:29.501Z,45.87
2022-11-14T19:29:20.655Z,45.77
2022-11-14T19:32:37.924Z,44.53
2022-11-14T19:35:31.808Z,46.33
2022-11-14T19:38:30.633Z,46.97
2022-11-14T19:41:45.663Z,45.47
2022-11-14T19:44:37.498Z,45.07
2022-11-14T19:47:41.225Z,45.43
2022-11-14T19:50:38.294Z,46.37
2022-11-14T19:53:33.854Z,44.97
2022-11-14T19:56:30.810Z,46.20
2022-11-14T19:59:24.363Z,44.37
2022-11-14T20:02:18.186Z,46.10
2022-11-14T20:05:13.053Z,44.63
2022-11-14T20:08:16.972Z,46.23
2022-11-14T20:11:13.925Z,47.47
2022-11-14T20:14:09.384Z,47.40
2022-11-14T20:17:13.519Z,48.77
2022-11-14T20:20:04.267Z,49.80
2022-11-14T20:23:14.654Z,49.57
2022-11-14T20:26:15.208Z,51.07
2022-11-14T20:29:19.506Z,51.57
2022-11-14T20:32:24.888Z,49.87
2022-11-14T20:35:27.017Z,51.03
2022-11-14T20:38:19.952Z,50.67
2022-11-14T20:41:19.983Z,52.47
2022-11-14T20:44:14.566Z,50.00
2022-11-14T20:47:10.940Z,51.47
2022-11-14T20:50:13.369Z,51.50
2022-11-14T20:53:03.068Z,50.77
2022-11-14T20:56:03.847Z,50.50
2022-11-14T20:58:53.061Z,50.87
2022-11-14T21:01:48.055Z,50.67
2022-11-14T21:04:46.582Z,47.10
2022-11-14T21:07:37.600Z,48.47
2022-11-14T21:10:53.093Z,46.23
2022-11-14T21:14:08.522Z,45.17
2022-11-14T21:17:04.763Z,47.20
2022-11-14T21:19:55.432Z,43.47
2022-11-14T21:22:45.728Z,43.80
2022-11-14T21:25:43.433Z,44.80
2022-11-14T21:28:40.701Z,43.77
2022-11-14T21:31:46.463Z,40.70
2022-11-14T21:34:43.499Z,39.90
2022-11-14T21:37:40.091Z,36.63
2022-11-14T21:40:43.804Z,38.50
2022-11-14T21:43:33.793Z,36.67
2022-11-14T21:46:24.947Z,38.13
2022-11-14T21:49:29.883Z,39.43
2022-11-14T21:52:19.816Z,39.70
2022-11-14T21:55:17.954Z,37.47
2022-11-14T21:58:11.003Z,37.60
2022-11-14T22:01:08.253Z,37.20
2022-11-14T22:04:14.899Z,36.93
2022-11-14T22:07:17.576Z,37.27
2022-11-14T22:10:14.787Z,38.50
2022-11-14T22:13:02.366Z,37.70
2022-11-14T22:15:50.824Z,40.63
2022-11-14T22:18:41.993Z,38.53
2022-11-14T22:21:28.751Z,37.43
2022-11-14T22:24:29.530Z,37.63
2022-11-14T22:27:23.210Z,38.83
2022-11-14T22:30:19.841Z,38.93
2022-11-14T22:33:16.099Z,38.20
2022-11-14T22:36:27.281Z,38.40
2022-11-14T22:39:18.393Z,38.07
2022-11-14T22:42:10.990Z,37.20
2022-11-14T22:45:02.792Z,36.47
2022-11-14T22:47:50.097Z,39.03
2022-11-14T22:50:52.315Z,38.90
2022-11-14T22:53:42.860Z,35.70
2022-11-14T22:56:36.664Z,38.87
2022-11-14T22:59:35.359Z,36.13
2022-11-14T23:02:26.264Z,35.93
2022-11-14T23:05:13.717Z,36.97
2022-11-14T23:08:04.493Z,37.83
2022-11-14T23:11:00.156Z,36.30
2022-11-14T23:13:55.024Z,36.30
2022-11-14T23:16:55.082Z,36.27
2022-11-14T23:19:54.793Z,37.90
2022-11-14T23:22:46.011Z,36.00
2022-11-14T23:25:45.168Z,37.07
2022-11-14T23:28:36.009Z,36.93
2022-11-14T23:31:25.960Z,38.73
2022-11-14T23:34:16.581Z,39.17
2022-11-14T23:37:07.860Z,39.17
2022-11-14T23:40:02.196Z,38.30
2022-11-14T23:42:51.955Z,41.23
2022-11-14T23:45:44.241Z,38.73
2022-11-14T23:48:33.673Z,38.27
2022-11-14T23:51:30.050Z,38.03
2022-11-14T23:54:21.166Z,36.07
2022-11-14T23:57:11.765Z,37.70
2022-11-14T23:59:59.412Z,37.10
